sensor_id;sensor_type;location;lat;lon;timestamp;P1;durP1;ratioP1;P2;durP2;ratioP2
36137;SDS011;67787;50.074;21.904;2023-11-18T05:39:11;15.90;;;7.00;;
36137;SDS011;67787;50.074;21.904;2023-11-18T05:41:39;16.60;;;7.10;;
36137;SDS011;67787;50.074;21.904;2023-11-18T05:44:08;15.20;;;7.10;;
36137;SDS011;67787;50.074;21.904;2023-11-18T05:46:45;17.60;;;7.70;;
36137;SDS011;67787;50.074;21.904;2023-11-18T05:49:20;17.50;;;8.30;;
36137;SDS011;67787;50.074;21.904;2023-11-18T05:51:51;19.60;;;8.30;;
36137;SDS011;67787;50.074;21.904;2023-11-18T05:54:25;17.20;;;7.90;;
36137;SDS011;67787;50.074;21.904;2023-11-18T05:56:56;17.10;;;7.60;;
36137;SDS011;67787;50.074;21.904;2023-11-18T05:59:34;29.70;;;8.80;;
36137;SDS011;67787;50.074;21.904;2023-11-18T06:02:04;18.30;;;8.50;;
36137;SDS011;67787;50.074;21.904;2023-11-18T06:04:36;11.00;;;5.00;;
36137;SDS011;67787;50.074;21.904;2023-11-18T06:07:09;19.20;;;8.50;;
36137;SDS011;67787;50.074;21.904;2023-11-18T06:09:40;18.50;;;7.70;;
36137;SDS011;67787;50.074;21.904;2023-11-18T06:12:28;16.80;;;8.20;;
36137;SDS011;67787;50.074;21.904;2023-11-18T06:15:13;16.70;;;7.50;;
36137;SDS011;67787;50.074;21.904;2023-11-18T06:17:45;18.80;;;8.80;;
36137;SDS011;67787;50.074;21.904;2023-11-18T06:20:17;19.80;;;9.00;;
36137;SDS011;67787;50.074;21.904;2023-11-18T06:22:45;19.60;;;8.70;;
36137;SDS011;67787;50.074;21.904;2023-11-18T06:25:13;18.40;;;8.80;;
36137;SDS011;67787;50.074;21.904;2023-11-18T06:27:44;22.90;;;10.30;;
36137;SDS011;67787;50.074;21.904;2023-11-18T06:30:15;24.90;;;11.90;;
36137;SDS011;67787;50.074;21.904;2023-11-18T06:32:45;23.10;;;10.90;;
36137;SDS011;67787;50.074;21.904;2023-11-18T06:35:22;22.40;;;11.40;;
36137;SDS011;67787;50.074;21.904;2023-11-18T06:38:04;23.00;;;10.40;;
36137;SDS011;67787;50.074;21.904;2023-11-18T06:40:46;24.30;;;10.10;;
36137;SDS011;67787;50.074;21.904;2023-11-18T06:43:20;25.90;;;12.00;;
36137;SDS011;67787;50.074;21.904;2023-11-18T06:45:52;32.50;;;13.60;;
36137;SDS011;67787;50.074;21.904;2023-11-18T06:48:22;27.40;;;12.20;;
36137;SDS011;67787;50.074;21.904;2023-11-18T06:50:50;21.30;;;10.60;;
36137;SDS011;67787;50.074;21.904;2023-11-18T06:53:32;25.50;;;13.90;;
36137;SDS011;67787;50.074;21.904;2023-11-18T06:56:04;24.70;;;12.60;;
36137;SDS011;67787;50.074;21.904;2023-11-18T06:58:33;24.60;;;11.80;;
36137;SDS011;67787;50.074;21.904;2023-11-18T07:01:02;26.70;;;13.70;;
36137;SDS011;67787;50.074;21.904;2023-11-18T07:03:44;23.10;;;10.40;;
36137;SDS011;67787;50.074;21.904;2023-11-18T07:06:35;20.80;;;10.00;;
36137;SDS011;67787;50.074;21.904;2023-11-18T07:09:07;20.40;;;10.40;;
36137;SDS011;67787;50.074;21.904;2023-11-18T07:11:49;23.40;;;11.00;;
36137;SDS011;67787;50.074;21.904;2023-11-18T07:14:24;20.20;;;10.00;;
36137;SDS011;67787;50.074;21.904;2023-11-18T07:16:55;21.70;;;11.70;;
36137;SDS011;67787;50.074;21.904;2023-11-18T07:19:23;23.80;;;12.10;;
36137;SDS011;67787;50.074;21.904;2023-11-18T11:03:33;27.80;;;15.00;;
36137;SDS011;67787;50.074;21.904;2023-11-18T11:06:15;25.00;;;13.20;;
36137;SDS011;67787;50.074;21.904;2023-11-18T11:08:47;33.00;;;15.60;;
36137;SDS011;67787;50.074;21.904;2023-11-18T11:11:17;25.90;;;13.30;;
36137;SDS011;67787;50.074;21.904;2023-11-18T11:16:18;20.80;;;10.00;;
36137;SDS011;67787;50.074;21.904;2023-11-18T11:18:47;27.20;;;15.90;;
36137;SDS011;67787;50.074;21.904;2023-11-18T11:21:25;102.60;;;48.90;;
36137;SDS011;67787;50.074;21.904;2023-11-18T11:24:01;72.10;;;33.80;;
36137;SDS011;67787;50.074;21.904;2023-11-18T11:29:27;53.20;;;21.30;;
36137;SDS011;67787;50.074;21.904;2023-11-18T11:34:40;32.30;;;13.40;;
36137;SDS011;67787;50.074;21.904;2023-11-18T11:37:25;74.20;;;34.40;;
36137;SDS011;67787;50.074;21.904;2023-11-18T11:39:55;95.50;;;43.30;;
36137;SDS011;67787;50.074;21.904;2023-11-18T11:42:26;56.50;;;27.80;;
36137;SDS011;67787;50.074;21.904;2023-11-18T11:44:57;57.80;;;33.40;;
36137;SDS011;67787;50.074;21.904;2023-11-18T11:47:33;39.80;;;21.20;;
36137;SDS011;67787;50.074;21.904;2023-11-18T11:50:12;41.80;;;20.40;;
36137;SDS011;67787;50.074;21.904;2023-11-18T11:52:51;33.70;;;16.90;;
36137;SDS011;67787;50.074;21.904;2023-11-18T11:55:33;36.30;;;18.60;;
36137;SDS011;67787;50.074;21.904;2023-11-18T11:58:18;53.80;;;25.60;;
36137;SDS011;67787;50.074;21.904;2023-11-18T12:01:43;39.10;;;20.40;;
36137;SDS011;67787;50.074;21.904;2023-11-18T12:04:08;38.50;;;18.50;;
36137;SDS011;67787;50.074;21.904;2023-11-18T12:06:42;34.50;;;18.10;;
36137;SDS011;67787;50.074;21.904;2023-11-18T12:09:11;29.30;;;14.40;;
36137;SDS011;67787;50.074;21.904;2023-11-18T12:11:47;26.10;;;12.50;;
36137;SDS011;67787;50.074;21.904;2023-11-18T12:14:19;24.20;;;12.60;;
36137;SDS011;67787;50.074;21.904;2023-11-18T12:17:08;30.60;;;14.50;;
36137;SDS011;67787;50.074;21.904;2023-11-18T12:19:41;32.50;;;15.50;;
36137;SDS011;67787;50.074;21.904;2023-11-18T12:22:15;22.80;;;10.80;;
36137;SDS011;67787;50.074;21.904;2023-11-18T12:35:23;45.10;;;23.90;;
36137;SDS011;67787;50.074;21.904;2023-11-18T12:40:54;21.60;;;11.20;;
36137;SDS011;67787;50.074;21.904;2023-11-18T12:49:04;37.80;;;21.30;;
36137;SDS011;67787;50.074;21.904;2023-11-18T12:51:34;47.10;;;23.10;;
36137;SDS011;67787;50.074;21.904;2023-11-18T12:54:04;30.50;;;15.60;;
36137;SDS011;67787;50.074;21.904;2023-11-18T12:56:34;23.10;;;12.50;;
36137;SDS011;67787;50.074;21.904;2023-11-18T12:59:04;22.70;;;11.40;;
36137;SDS011;67787;50.074;21.904;2023-11-18T13:01:34;21.90;;;11.60;;
36137;SDS011;67787;50.074;21.904;2023-11-18T13:04:04;22.60;;;11.30;;
36137;SDS011;67787;50.074;21.904;2023-11-18T13:06:32;20.80;;;10.90;;
36137;SDS011;67787;50.074;21.904;2023-11-18T13:09:01;37.50;;;19.50;;
36137;SDS011;67787;50.074;21.904;2023-11-18T13:11:33;32.00;;;17.10;;
36137;SDS011;67787;50.074;21.904;2023-11-18T13:14:01;26.40;;;14.60;;
36137;SDS011;67787;50.074;21.904;2023-11-18T13:16:30;25.80;;;13.70;;
36137;SDS011;67787;50.074;21.904;2023-11-18T13:18:58;26.90;;;14.30;;
36137;SDS011;67787;50.074;21.904;2023-11-18T13:21:25;25.80;;;13.70;;
36137;SDS011;67787;50.074;21.904;2023-11-18T13:23:57;36.80;;;14.70;;
36137;SDS011;67787;50.074;21.904;2023-11-18T13:26:25;33.00;;;16.20;;
36137;SDS011;67787;50.074;21.904;2023-11-18T13:28:53;35.00;;;16.80;;
36137;SDS011;67787;50.074;21.904;2023-11-18T13:31:21;44.20;;;22.40;;
36137;SDS011;67787;50.074;21.904;2023-11-18T13:33:50;42.00;;;19.80;;
36137;SDS011;67787;50.074;21.904;2023-11-18T13:36:19;37.60;;;18.20;;
36137;SDS011;67787;50.074;21.904;2023-11-18T13:38:48;32.90;;;16.50;;
36137;SDS011;67787;50.074;21.904;2023-11-18T13:41:38;33.80;;;18.10;;
36137;SDS011;67787;50.074;21.904;2023-11-18T13:44:05;25.90;;;13.40;;
36137;SDS011;67787;50.074;21.904;2023-11-18T13:46:33;27.20;;;15.80;;
36137;SDS011;67787;50.074;21.904;2023-11-18T13:49:03;26.90;;;13.70;;
36137;SDS011;67787;50.074;21.904;2023-11-18T13:51:33;34.60;;;18.20;;
36137;SDS011;67787;50.074;21.904;2023-11-18T13:54:03;31.60;;;18.20;;
36137;SDS011;67787;50.074;21.904;2023-11-18T13:56:32;29.40;;;17.40;;
36137;SDS011;67787;50.074;21.904;2023-11-18T13:59:00;34.20;;;17.50;;
36137;SDS011;67787;50.074;21.904;2023-11-18T14:01:31;36.30;;;16.70;;
36137;SDS011;67787;50.074;21.904;2023-11-18T14:03:59;44.10;;;23.00;;
36137;SDS011;67787;50.074;21.904;2023-11-18T14:06:32;37.50;;;19.90;;
36137;SDS011;67787;50.074;21.904;2023-11-18T14:08:59;34.60;;;18.10;;
36137;SDS011;67787;50.074;21.904;2023-11-18T14:11:29;36.40;;;17.60;;
36137;SDS011;67787;50.074;21.904;2023-11-18T14:13:57;34.60;;;17.20;;
36137;SDS011;67787;50.074;21.904;2023-11-18T14:16:26;36.10;;;18.20;;
36137;SDS011;67787;50.074;21.904;2023-11-18T14:18:56;29.10;;;15.20;;
36137;SDS011;67787;50.074;21.904;2023-11-18T14:21:24;29.60;;;15.50;;
36137;SDS011;67787;50.074;21.904;2023-11-18T14:23:53;33.30;;;17.90;;
36137;SDS011;67787;50.074;21.904;2023-11-18T14:26:23;92.40;;;47.60;;
36137;SDS011;67787;50.074;21.904;2023-11-18T14:28:51;42.70;;;24.20;;
36137;SDS011;67787;50.074;21.904;2023-11-18T14:31:20;32.70;;;17.00;;
36137;SDS011;67787;50.074;21.904;2023-11-18T14:33:49;34.30;;;16.90;;
36137;SDS011;67787;50.074;21.904;2023-11-18T14:36:17;40.80;;;19.00;;
36137;SDS011;67787;50.074;21.904;2023-11-18T14:38:46;38.50;;;19.60;;
36137;SDS011;67787;50.074;21.904;2023-11-18T14:41:15;39.40;;;24.40;;
36137;SDS011;67787;50.074;21.904;2023-11-18T14:43:42;38.40;;;19.60;;
36137;SDS011;67787;50.074;21.904;2023-11-18T14:46:10;38.10;;;19.90;;
36137;SDS011;67787;50.074;21.904;2023-11-18T14:48:38;38.80;;;20.30;;
36137;SDS011;67787;50.074;21.904;2023-11-18T14:51:06;37.00;;;17.60;;
36137;SDS011;67787;50.074;21.904;2023-11-18T14:53:34;36.30;;;18.80;;
36137;SDS011;67787;50.074;21.904;2023-11-18T14:56:03;37.60;;;19.10;;
36137;SDS011;67787;50.074;21.904;2023-11-18T14:58:33;37.20;;;17.60;;
36137;SDS011;67787;50.074;21.904;2023-11-18T15:01:02;37.50;;;18.00;;
36137;SDS011;67787;50.074;21.904;2023-11-18T15:03:30;53.50;;;26.10;;
36137;SDS011;67787;50.074;21.904;2023-11-18T15:05:58;38.40;;;18.70;;
36137;SDS011;67787;50.074;21.904;2023-11-18T15:08:26;29.50;;;15.50;;
36137;SDS011;67787;50.074;21.904;2023-11-18T15:10:54;37.10;;;17.20;;
36137;SDS011;67787;50.074;21.904;2023-11-18T15:13:22;30.30;;;17.40;;
36137;SDS011;67787;50.074;21.904;2023-11-18T15:15:50;29.30;;;15.40;;
36137;SDS011;67787;50.074;21.904;2023-11-18T15:18:17;30.50;;;16.70;;
36137;SDS011;67787;50.074;21.904;2023-11-18T15:20:47;33.80;;;18.80;;
36137;SDS011;67787;50.074;21.904;2023-11-18T15:23:16;29.90;;;17.80;;
36137;SDS011;67787;50.074;21.904;2023-11-18T15:25:45;33.10;;;19.60;;
36137;SDS011;67787;50.074;21.904;2023-11-18T15:28:13;37.00;;;21.70;;
36137;SDS011;67787;50.074;21.904;2023-11-18T15:30:42;37.50;;;21.30;;
36137;SDS011;67787;50.074;21.904;2023-11-18T15:33:11;38.80;;;20.90;;
36137;SDS011;67787;50.074;21.904;2023-11-18T15:35:43;36.90;;;20.90;;
36137;SDS011;67787;50.074;21.904;2023-11-18T15:38:12;34.80;;;19.60;;
36137;SDS011;67787;50.074;21.904;2023-11-18T15:40:47;36.40;;;19.50;;
36137;SDS011;67787;50.074;21.904;2023-11-18T15:43:17;38.00;;;19.20;;
36137;SDS011;67787;50.074;21.904;2023-11-18T15:45:45;34.00;;;19.00;;
36137;SDS011;67787;50.074;21.904;2023-11-18T15:48:13;34.90;;;19.10;;
36137;SDS011;67787;50.074;21.904;2023-11-18T15:50:42;35.30;;;20.10;;
36137;SDS011;67787;50.074;21.904;2023-11-18T15:53:10;33.80;;;18.30;;
36137;SDS011;67787;50.074;21.904;2023-11-18T15:55:42;26.40;;;14.10;;
36137;SDS011;67787;50.074;21.904;2023-11-18T15:58:16;32.90;;;18.00;;
36137;SDS011;67787;50.074;21.904;2023-11-18T16:00:47;42.50;;;22.60;;
36137;SDS011;67787;50.074;21.904;2023-11-18T16:03:15;49.70;;;26.80;;
36137;SDS011;67787;50.074;21.904;2023-11-18T16:05:42;50.40;;;27.30;;
36137;SDS011;67787;50.074;21.904;2023-11-18T16:08:10;53.70;;;31.20;;
36137;SDS011;67787;50.074;21.904;2023-11-18T16:10:38;50.00;;;30.10;;
36137;SDS011;67787;50.074;21.904;2023-11-18T16:13:06;44.50;;;28.10;;
36137;SDS011;67787;50.074;21.904;2023-11-18T16:15:34;35.70;;;20.50;;
36137;SDS011;67787;50.074;21.904;2023-11-18T16:18:03;34.90;;;19.70;;
36137;SDS011;67787;50.074;21.904;2023-11-18T16:20:32;40.00;;;23.70;;
36137;SDS011;67787;50.074;21.904;2023-11-18T16:23:01;40.90;;;25.30;;
36137;SDS011;67787;50.074;21.904;2023-11-18T16:25:33;34.10;;;19.40;;
36137;SDS011;67787;50.074;21.904;2023-11-18T16:28:19;36.90;;;22.30;;
36137;SDS011;67787;50.074;21.904;2023-11-18T16:30:47;39.40;;;24.30;;
36137;SDS011;67787;50.074;21.904;2023-11-18T16:33:18;37.00;;;22.00;;
36137;SDS011;67787;50.074;21.904;2023-11-18T16:35:46;37.60;;;21.70;;
36137;SDS011;67787;50.074;21.904;2023-11-18T16:38:14;41.10;;;23.40;;
36137;SDS011;67787;50.074;21.904;2023-11-18T16:40:42;41.40;;;21.50;;
36137;SDS011;67787;50.074;21.904;2023-11-18T16:43:10;36.10;;;22.40;;
36137;SDS011;67787;50.074;21.904;2023-11-18T16:45:38;39.50;;;21.70;;
36137;SDS011;67787;50.074;21.904;2023-11-18T16:48:07;37.90;;;22.30;;
36137;SDS011;67787;50.074;21.904;2023-11-18T16:50:36;37.90;;;24.30;;
36137;SDS011;67787;50.074;21.904;2023-11-18T16:53:04;38.00;;;21.70;;
36137;SDS011;67787;50.074;21.904;2023-11-18T16:55:33;58.60;;;32.20;;
36137;SDS011;67787;50.074;21.904;2023-11-18T16:58:02;60.30;;;32.10;;
36137;SDS011;67787;50.074;21.904;2023-11-18T17:00:30;39.00;;;20.60;;
36137;SDS011;67787;50.074;21.904;2023-11-18T17:03:00;43.40;;;23.00;;
36137;SDS011;67787;50.074;21.904;2023-11-18T17:05:29;40.70;;;22.10;;
36137;SDS011;67787;50.074;21.904;2023-11-18T17:07:59;48.40;;;28.20;;
36137;SDS011;67787;50.074;21.904;2023-11-18T17:10:28;49.10;;;28.70;;
36137;SDS011;67787;50.074;21.904;2023-11-18T17:12:57;55.90;;;31.30;;
36137;SDS011;67787;50.074;21.904;2023-11-18T17:15:28;47.50;;;24.90;;
36137;SDS011;67787;50.074;21.904;2023-11-18T17:17:56;34.30;;;17.80;;
36137;SDS011;67787;50.074;21.904;2023-11-18T17:20:31;39.50;;;19.40;;
36137;SDS011;67787;50.074;21.904;2023-11-18T17:22:59;34.80;;;18.20;;
36137;SDS011;67787;50.074;21.904;2023-11-18T17:25:27;32.60;;;18.20;;
36137;SDS011;67787;50.074;21.904;2023-11-18T17:27:56;35.50;;;17.90;;
36137;SDS011;67787;50.074;21.904;2023-11-18T17:30:24;37.70;;;22.20;;
36137;SDS011;67787;50.074;21.904;2023-11-18T17:32:52;48.60;;;28.80;;
36137;SDS011;67787;50.074;21.904;2023-11-18T17:35:21;48.10;;;29.10;;
36137;SDS011;67787;50.074;21.904;2023-11-18T17:37:49;37.70;;;20.40;;
36137;SDS011;67787;50.074;21.904;2023-11-18T17:40:17;34.60;;;19.50;;
36137;SDS011;67787;50.074;21.904;2023-11-18T17:42:49;38.70;;;22.40;;
36137;SDS011;67787;50.074;21.904;2023-11-18T17:45:21;35.80;;;19.00;;
36137;SDS011;67787;50.074;21.904;2023-11-18T17:47:52;37.60;;;20.90;;
36137;SDS011;67787;50.074;21.904;2023-11-18T17:50:20;46.70;;;27.60;;
36137;SDS011;67787;50.074;21.904;2023-11-18T17:52:48;36.10;;;20.60;;
36137;SDS011;67787;50.074;21.904;2023-11-18T17:55:18;33.50;;;19.10;;
36137;SDS011;67787;50.074;21.904;2023-11-18T17:57:46;35.30;;;20.90;;
36137;SDS011;67787;50.074;21.904;2023-11-18T18:00:14;36.00;;;20.90;;
36137;SDS011;67787;50.074;21.904;2023-11-18T18:02:51;30.70;;;17.00;;
36137;SDS011;67787;50.074;21.904;2023-11-18T18:05:21;31.60;;;17.50;;
36137;SDS011;67787;50.074;21.904;2023-11-18T18:08:00;29.90;;;15.90;;
36137;SDS011;67787;50.074;21.904;2023-11-18T18:10:28;33.30;;;15.10;;
36137;SDS011;67787;50.074;21.904;2023-11-18T18:12:56;78.20;;;35.80;;
36137;SDS011;67787;50.074;21.904;2023-11-18T18:15:24;35.30;;;17.70;;
36137;SDS011;67787;50.074;21.904;2023-11-18T18:17:54;32.50;;;15.70;;
36137;SDS011;67787;50.074;21.904;2023-11-18T18:20:22;35.40;;;18.60;;
36137;SDS011;67787;50.074;21.904;2023-11-18T18:22:50;32.60;;;19.10;;
36137;SDS011;67787;50.074;21.904;2023-11-18T18:25:18;35.10;;;20.00;;
36137;SDS011;67787;50.074;21.904;2023-11-18T18:27:46;29.60;;;16.90;;
36137;SDS011;67787;50.074;21.904;2023-11-18T18:30:17;33.60;;;17.50;;
36137;SDS011;67787;50.074;21.904;2023-11-18T18:32:46;35.80;;;20.30;;
36137;SDS011;67787;50.074;21.904;2023-11-18T18:35:14;36.90;;;20.20;;
36137;SDS011;67787;50.074;21.904;2023-11-18T18:37:44;31.40;;;17.00;;
36137;SDS011;67787;50.074;21.904;2023-11-18T18:40:12;30.00;;;17.00;;
36137;SDS011;67787;50.074;21.904;2023-11-18T18:42:40;33.80;;;18.90;;
36137;SDS011;67787;50.074;21.904;2023-11-18T18:45:08;27.90;;;16.20;;
36137;SDS011;67787;50.074;21.904;2023-11-18T18:47:37;32.00;;;16.40;;
36137;SDS011;67787;50.074;21.904;2023-11-18T18:50:05;35.90;;;19.80;;
36137;SDS011;67787;50.074;21.904;2023-11-18T18:52:35;32.80;;;17.90;;
36137;SDS011;67787;50.074;21.904;2023-11-18T18:55:03;33.90;;;17.90;;
36137;SDS011;67787;50.074;21.904;2023-11-18T18:57:33;34.70;;;19.90;;
36137;SDS011;67787;50.074;21.904;2023-11-18T19:00:01;34.30;;;18.80;;
36137;SDS011;67787;50.074;21.904;2023-11-18T19:02:29;35.00;;;19.10;;
36137;SDS011;67787;50.074;21.904;2023-11-18T19:04:58;34.50;;;19.80;;
36137;SDS011;67787;50.074;21.904;2023-11-18T19:07:26;34.80;;;21.80;;
36137;SDS011;67787;50.074;21.904;2023-11-18T19:09:56;46.70;;;26.30;;
36137;SDS011;67787;50.074;21.904;2023-11-18T19:12:24;38.80;;;21.00;;
36137;SDS011;67787;50.074;21.904;2023-11-18T19:14:52;57.70;;;27.00;;
36137;SDS011;67787;50.074;21.904;2023-11-18T19:17:20;42.70;;;21.70;;
36137;SDS011;67787;50.074;21.904;2023-11-18T19:19:49;35.00;;;18.30;;
36137;SDS011;67787;50.074;21.904;2023-11-18T19:22:17;39.60;;;20.50;;
36137;SDS011;67787;50.074;21.904;2023-11-18T19:24:45;30.30;;;16.20;;
36137;SDS011;67787;50.074;21.904;2023-11-18T19:27:15;31.90;;;16.10;;
36137;SDS011;67787;50.074;21.904;2023-11-18T19:29:42;28.80;;;15.90;;
36137;SDS011;67787;50.074;21.904;2023-11-18T19:32:11;27.20;;;14.10;;
36137;SDS011;67787;50.074;21.904;2023-11-18T19:34:39;27.80;;;14.60;;
36137;SDS011;67787;50.074;21.904;2023-11-18T19:37:07;28.40;;;14.40;;
36137;SDS011;67787;50.074;21.904;2023-11-18T19:39:37;27.50;;;14.50;;
36137;SDS011;67787;50.074;21.904;2023-11-18T19:42:08;25.50;;;12.70;;
36137;SDS011;67787;50.074;21.904;2023-11-18T19:44:37;28.50;;;14.20;;
36137;SDS011;67787;50.074;21.904;2023-11-18T19:47:05;27.70;;;14.80;;
36137;SDS011;67787;50.074;21.904;2023-11-18T19:49:34;29.40;;;15.80;;
36137;SDS011;67787;50.074;21.904;2023-11-18T19:52:02;29.50;;;15.20;;
36137;SDS011;67787;50.074;21.904;2023-11-18T19:54:31;28.70;;;15.80;;
36137;SDS011;67787;50.074;21.904;2023-11-18T19:56:59;30.40;;;15.40;;
36137;SDS011;67787;50.074;21.904;2023-11-18T19:59:27;27.40;;;15.50;;
36137;SDS011;67787;50.074;21.904;2023-11-18T20:01:56;37.20;;;19.90;;
36137;SDS011;67787;50.074;21.904;2023-11-18T20:04:26;34.60;;;18.20;;
36137;SDS011;67787;50.074;21.904;2023-11-18T20:06:54;30.50;;;16.10;;
36137;SDS011;67787;50.074;21.904;2023-11-18T20:09:22;32.50;;;17.10;;
36137;SDS011;67787;50.074;21.904;2023-11-18T20:11:50;29.20;;;17.00;;
36137;SDS011;67787;50.074;21.904;2023-11-18T20:14:19;32.90;;;17.10;;
36137;SDS011;67787;50.074;21.904;2023-11-18T20:16:50;31.10;;;16.00;;
36137;SDS011;67787;50.074;21.904;2023-11-18T20:19:17;31.30;;;16.30;;
36137;SDS011;67787;50.074;21.904;2023-11-18T20:21:48;36.80;;;20.30;;
36137;SDS011;67787;50.074;21.904;2023-11-18T20:24:19;34.50;;;18.80;;
36137;SDS011;67787;50.074;21.904;2023-11-18T20:26:47;29.40;;;15.80;;
36137;SDS011;67787;50.074;21.904;2023-11-18T20:29:15;31.20;;;17.50;;
36137;SDS011;67787;50.074;21.904;2023-11-18T20:31:43;30.90;;;15.90;;
36137;SDS011;67787;50.074;21.904;2023-11-18T20:34:12;30.70;;;16.60;;
36137;SDS011;67787;50.074;21.904;2023-11-18T20:36:40;32.60;;;18.10;;
36137;SDS011;67787;50.074;21.904;2023-11-18T20:39:09;31.80;;;16.60;;
36137;SDS011;67787;50.074;21.904;2023-11-18T20:44:14;29.20;;;13.90;;
36137;SDS011;67787;50.074;21.904;2023-11-18T20:46:42;27.90;;;14.90;;
36137;SDS011;67787;50.074;21.904;2023-11-18T20:49:12;27.40;;;14.70;;
36137;SDS011;67787;50.074;21.904;2023-11-18T20:51:40;30.10;;;15.70;;
36137;SDS011;67787;50.074;21.904;2023-11-18T20:54:08;29.90;;;15.90;;
36137;SDS011;67787;50.074;21.904;2023-11-18T20:56:36;35.50;;;18.40;;
36137;SDS011;67787;50.074;21.904;2023-11-18T20:59:04;69.70;;;31.50;;
36137;SDS011;67787;50.074;21.904;2023-11-18T21:01:32;82.00;;;36.80;;
36137;SDS011;67787;50.074;21.904;2023-11-18T21:04:00;72.20;;;32.50;;
36137;SDS011;67787;50.074;21.904;2023-11-18T21:06:28;45.60;;;21.60;;
36137;SDS011;67787;50.074;21.904;2023-11-18T21:08:57;35.50;;;19.10;;
36137;SDS011;67787;50.074;21.904;2023-11-18T21:11:25;29.80;;;16.30;;
36137;SDS011;67787;50.074;21.904;2023-11-18T21:13:54;30.40;;;17.10;;
36137;SDS011;67787;50.074;21.904;2023-11-18T21:16:22;37.20;;;18.70;;
36137;SDS011;67787;50.074;21.904;2023-11-18T21:18:50;35.30;;;19.70;;
36137;SDS011;67787;50.074;21.904;2023-11-18T21:21:18;36.10;;;18.00;;
36137;SDS011;67787;50.074;21.904;2023-11-18T21:23:46;33.10;;;17.20;;
36137;SDS011;67787;50.074;21.904;2023-11-18T21:26:15;34.20;;;16.00;;
36137;SDS011;67787;50.074;21.904;2023-11-18T21:28:44;33.70;;;15.80;;
36137;SDS011;67787;50.074;21.904;2023-11-18T21:31:14;35.60;;;18.30;;
36137;SDS011;67787;50.074;21.904;2023-11-18T21:33:44;33.50;;;16.80;;
36137;SDS011;67787;50.074;21.904;2023-11-18T21:36:12;33.80;;;17.60;;
36137;SDS011;67787;50.074;21.904;2023-11-18T21:38:45;33.40;;;16.60;;
36137;SDS011;67787;50.074;21.904;2023-11-18T21:41:20;27.30;;;15.50;;
36137;SDS011;67787;50.074;21.904;2023-11-18T21:43:48;35.90;;;19.50;;
36137;SDS011;67787;50.074;21.904;2023-11-18T21:46:16;32.90;;;17.50;;
36137;SDS011;67787;50.074;21.904;2023-11-18T21:48:44;36.60;;;18.40;;
36137;SDS011;67787;50.074;21.904;2023-11-18T21:51:12;33.00;;;18.00;;
36137;SDS011;67787;50.074;21.904;2023-11-18T21:53:41;32.40;;;17.30;;
36137;SDS011;67787;50.074;21.904;2023-11-18T21:56:10;36.40;;;18.80;;
36137;SDS011;67787;50.074;21.904;2023-11-18T21:58:38;58.20;;;23.40;;
36137;SDS011;67787;50.074;21.904;2023-11-18T22:01:06;42.00;;;19.20;;
36137;SDS011;67787;50.074;21.904;2023-11-18T22:03:34;54.50;;;24.80;;
36137;SDS011;67787;50.074;21.904;2023-11-18T22:06:02;49.20;;;21.80;;
36137;SDS011;67787;50.074;21.904;2023-11-18T22:08:30;48.50;;;27.80;;
36137;SDS011;67787;50.074;21.904;2023-11-18T22:10:58;48.50;;;26.00;;
36137;SDS011;67787;50.074;21.904;2023-11-18T22:13:26;63.30;;;31.20;;
36137;SDS011;67787;50.074;21.904;2023-11-18T22:15:54;55.20;;;27.00;;
36137;SDS011;67787;50.074;21.904;2023-11-18T22:18:22;39.60;;;20.70;;
36137;SDS011;67787;50.074;21.904;2023-11-18T22:20:54;34.50;;;18.40;;
36137;SDS011;67787;50.074;21.904;2023-11-18T22:23:23;36.50;;;18.20;;
36137;SDS011;67787;50.074;21.904;2023-11-18T22:25:50;40.30;;;20.00;;
36137;SDS011;67787;50.074;21.904;2023-11-18T22:28:18;39.60;;;20.50;;
36137;SDS011;67787;50.074;21.904;2023-11-18T22:30:46;39.00;;;19.80;;
36137;SDS011;67787;50.074;21.904;2023-11-18T22:33:15;40.70;;;20.10;;
36137;SDS011;67787;50.074;21.904;2023-11-18T22:35:52;35.10;;;17.40;;
36137;SDS011;67787;50.074;21.904;2023-11-18T22:38:21;34.60;;;16.60;;
36137;SDS011;67787;50.074;21.904;2023-11-18T22:40:50;33.60;;;17.00;;
36137;SDS011;67787;50.074;21.904;2023-11-18T22:43:19;33.70;;;18.80;;
36137;SDS011;67787;50.074;21.904;2023-11-18T22:45:49;34.90;;;17.20;;
36137;SDS011;67787;50.074;21.904;2023-11-18T22:48:18;37.30;;;19.70;;
36137;SDS011;67787;50.074;21.904;2023-11-18T22:50:47;37.90;;;19.10;;
36137;SDS011;67787;50.074;21.904;2023-11-18T22:53:15;48.00;;;27.30;;
36137;SDS011;67787;50.074;21.904;2023-11-18T22:55:45;49.60;;;28.90;;
36137;SDS011;67787;50.074;21.904;2023-11-18T22:58:15;41.70;;;21.30;;
36137;SDS011;67787;50.074;21.904;2023-11-18T23:00:43;37.90;;;20.60;;
36137;SDS011;67787;50.074;21.904;2023-11-18T23:03:17;34.90;;;18.30;;
36137;SDS011;67787;50.074;21.904;2023-11-18T23:05:46;30.40;;;17.00;;
36137;SDS011;67787;50.074;21.904;2023-11-18T23:08:15;31.80;;;17.70;;
36137;SDS011;67787;50.074;21.904;2023-11-18T23:10:49;31.60;;;16.80;;
36137;SDS011;67787;50.074;21.904;2023-11-18T23:13:18;30.80;;;17.10;;
36137;SDS011;67787;50.074;21.904;2023-11-18T23:15:47;31.40;;;16.70;;
36137;SDS011;67787;50.074;21.904;2023-11-18T23:18:15;30.60;;;16.30;;
36137;SDS011;67787;50.074;21.904;2023-11-18T23:20:43;26.70;;;13.60;;
36137;SDS011;67787;50.074;21.904;2023-11-18T23:23:11;34.30;;;17.00;;
36137;SDS011;67787;50.074;21.904;2023-11-18T23:25:39;28.90;;;15.20;;
36137;SDS011;67787;50.074;21.904;2023-11-18T23:28:07;29.20;;;16.50;;
36137;SDS011;67787;50.074;21.904;2023-11-18T23:30:36;28.70;;;15.80;;
36137;SDS011;67787;50.074;21.904;2023-11-18T23:33:04;43.10;;;21.30;;
36137;SDS011;67787;50.074;21.904;2023-11-18T23:35:32;37.40;;;18.70;;
36137;SDS011;67787;50.074;21.904;2023-11-18T23:38:01;34.70;;;17.30;;
36137;SDS011;67787;50.074;21.904;2023-11-18T23:40:28;33.00;;;17.70;;
36137;SDS011;67787;50.074;21.904;2023-11-18T23:42:56;31.80;;;18.10;;
36137;SDS011;67787;50.074;21.904;2023-11-18T23:45:24;30.90;;;16.40;;
36137;SDS011;67787;50.074;21.904;2023-11-18T23:47:52;31.70;;;17.20;;
36137;SDS011;67787;50.074;21.904;2023-11-18T23:50:22;28.20;;;15.70;;
36137;SDS011;67787;50.074;21.904;2023-11-18T23:52:53;27.60;;;15.10;;
36137;SDS011;67787;50.074;21.904;2023-11-18T23:55:21;28.50;;;15.40;;
36137;SDS011;67787;50.074;21.904;2023-11-18T23:57:52;28.60;;;15.70;;
